Los Angeles, California
Traffic Map
Current Weather Conditions
Los Angeles, California
Overcast
Overcast
16°
Feels Like: 16°
Wind Chill: 16° Ceiling: 3100
Heat Index: 16° Visibility: 10mi
Dew Point: 11° Wind: 7mph
Humidity: 70% Direction: 90° (E)
Pressure: 29.87in Gusts: 0mph
Raw Report DataKHHR 271700Z 09006KT 10SM OVC031 16/11 A2987 RMK AO2 T01610106
Traffic Incident Summary
Active as of:
Severity:
Category:
InformationThere was an issue retrieving the traffic information for this location. Please try a different location or try again shortly.
Advertisements
Track Severe Weather on mobile